TR874 / 9V-TAZ 7700 Squawk Report (7th of December, 2019)

Aircraft A320 Reg No. 9V-TAZ Age 8 years old
Model A320 Jet engines 2 First flight 12-10-11
Registered 25-07-17 Rollout 10-11 Delivered 29-10-11
Construction No. 4879 Line No. N/A Series 232
ADSHEX 76D03A Airline name Scoot Owner N/A
Airfield based Changi~ ~9V First tracked 2017-07-13 02:58:00
Time Lat Lon Altitude Heading Speed Vertical Rate
2019-12-07 04:07:48 GMT 10.815010 106.656410 0 160 0 0
2019-12-07 04:06:55 GMT 10.815796 106.656235 0 247 6 0
2019-12-07 04:06:32 GMT 10.816040 106.656891 0 250 7 0
2019-12-07 04:06:14 GMT 10.816235 106.657402 0 250 7 0
2019-12-07 04:06:10 GMT 10.816273 106.657501 0 247 7 0
2019-12-07 04:06:06 GMT 10.816326 106.657639 0 247 7 0
2019-12-07 04:05:58 GMT 10.816441 106.657890 0 222 7 0
2019-12-07 04:05:49 GMT 10.816601 106.658020 0 185 7 0
2019-12-07 04:05:42 GMT 10.816820 106.658035 0 157 7 0
2019-12-07 04:05:37 GMT 10.816959 106.657982 0 140 7 0
2019-12-07 04:05:32 GMT 10.817087 106.657875 0 123 6 0
2019-12-07 04:05:22 GMT 10.817204 106.657646 0 115 7 0
2019-12-07 04:05:11 GMT 10.817332 106.657349 0 115 7 0
2019-12-07 04:05:00 GMT 10.817459 106.657059 0 115 7 0
2019-12-07 04:04:49 GMT 10.817585 106.656776 0 115 7 0
2019-12-07 04:04:24 GMT 10.817860 106.656158 0 115 6 0
2019-12-07 04:04:03 GMT 10.818053 106.655632 0 135 5 0
2019-12-07 04:03:59 GMT 10.818100 106.655556 0 157 5 0
2019-12-07 04:03:48 GMT 10.818317 106.655495 0 219 5 0
2019-12-07 04:03:38 GMT 10.818455 106.655640 0 244 5 0
2019-12-07 04:03:24 GMT 10.818554 106.655838 0 247 4 0
2019-12-07 04:03:14 GMT 10.818626 106.656044 0 247 5 0
2019-12-07 04:03:02 GMT 10.818729 106.656303 0 250 6 0
2019-12-07 04:02:55 GMT 10.818787 106.656471 0 247 5 0
2019-12-07 04:02:42 GMT 10.818868 106.656662 0 250 1 0
2019-12-07 04:02:22 GMT 10.818867 106.656662 0 250 0 0
2019-12-07 04:02:02 GMT 10.818868 106.656662 0 250 0 0
2019-12-07 04:01:57 GMT 10.818867 106.656662 0 250 0 0
2019-12-07 04:00:57 GMT 10.818868 106.656662 0 250 0 0
2019-12-07 04:00:02 GMT 10.818867 106.656662 0 250 0 0
2019-12-07 03:59:56 GMT 10.818868 106.656662 0 250 0 0
2019-12-07 03:58:57 GMT 10.818867 106.656662 0 250 3 0
2019-12-07 03:58:42 GMT 10.818856 106.656647 0 250 3 0
2019-12-07 03:58:32 GMT 10.818868 106.656662 0 250 3 0
2019-12-07 03:58:17 GMT 10.818856 106.656647 0 250 3 0
2019-12-07 03:58:01 GMT 10.818867 106.656662 0 250 3 0
2019-12-07 03:57:56 GMT 10.818868 106.656662 0 250 3 0
2019-12-07 03:57:37 GMT 10.818867 106.656647 0 250 3 0
2019-12-07 03:57:27 GMT 10.818868 106.656662 0 250 3 0
2019-12-07 03:57:03 GMT 10.818867 106.656647 0 250 3 0
2019-12-07 03:56:38 GMT 10.818856 106.656647 0 250 3 0
2019-12-07 03:56:23 GMT 10.818856 106.656662 0 250 3 0
2019-12-07 03:55:52 GMT 10.818867 106.656662 0 250 3 0
2019-12-07 03:55:38 GMT 10.818855 106.656647 0 250 3 0
2019-12-07 03:55:13 GMT 10.818856 106.656662 0 250 3 0
2019-12-07 03:54:58 GMT 10.818855 106.656662 0 250 3 0
2019-12-07 03:54:48 GMT 10.818856 106.656647 0 250 3 0
2019-12-07 03:54:42 GMT 10.818855 106.656647 0 250 3 0
2019-12-07 03:54:32 GMT 10.818856 106.656662 0 250 3 0
2019-12-07 03:54:22 GMT 10.818855 106.656647 0 250 3 0
2019-12-07 03:54:08 GMT 10.818856 106.656662 0 250 3 0
2019-12-07 03:53:38 GMT 10.818867 106.656662 0 250 3 0
2019-12-07 03:53:23 GMT 10.818856 106.656647 0 250 3 0
2019-12-07 03:53:13 GMT 10.818867 106.656662 0 250 3 0
2019-12-07 03:53:02 GMT 10.818867 106.656647 0 250 3 0
2019-12-07 03:52:37 GMT 10.818855 106.656647 0 250 3 0
2019-12-07 03:52:33 GMT 10.818856 106.656647 0 250 3 0
2019-12-07 03:52:23 GMT 10.818855 106.656647 0 250 3 0
2019-12-07 03:52:01 GMT 10.818867 106.656662 0 250 3 0
2019-12-07 03:51:50 GMT 10.818856 106.656647 0 250 3 0
2019-12-07 03:51:39 GMT 10.818856 106.656662 0 250 3 0
2019-12-07 03:51:28 GMT 10.818984 106.656975 0 250 38 0
2019-12-07 03:51:15 GMT 10.820183 106.660164 0 250 110 0
2019-12-07 03:50:58 GMT 10.823868 106.669907 25 250 147 -640
2019-12-07 03:50:54 GMT 10.825025 106.673004 100 250 146 -768
2019-12-07 03:50:47 GMT 10.826794 106.677635 175 250 146 -768
2019-12-07 03:50:44 GMT 10.827621 106.679802 225 250 145 -832
2019-12-07 03:50:37 GMT 10.829075 106.683655 300 249 146 -832
2019-12-07 03:50:34 GMT 10.830099 106.686356 350 250 147 -960
2019-12-07 03:50:26 GMT 10.831775 106.690880 450 250 145 -768
2019-12-07 03:50:22 GMT 10.833078 106.694351 525 249 144 -704
2019-12-07 03:50:15 GMT 10.834475 106.698013 575 250 145 -896
2019-12-07 03:50:10 GMT 10.835871 106.701721 675 249 145 -704
2019-12-07 03:50:04 GMT 10.837035 106.704666 725 249 146 -768
2019-12-07 03:50:01 GMT 10.838059 106.707504 775 250 146 -768
2019-12-07 03:49:54 GMT 10.839661 106.711769 850 250 146 -640
2019-12-07 03:49:50 GMT 10.840666 106.714447 900 249 147 -768
2019-12-07 03:49:39 GMT 10.843413 106.721718 1,025 250 154 -832
2019-12-07 03:49:27 GMT 10.846299 106.729431 1,175 250 162 -960
2019-12-07 03:49:21 GMT 10.847626 106.733032 1,250 249 167 -1408
2019-12-07 03:49:17 GMT 10.849045 106.736679 1,375 249 170 -1216
2019-12-07 03:49:11 GMT 10.850876 106.741463 1,475 250 176 -1152
2019-12-07 03:49:06 GMT 10.852397 106.745522 1,550 250 185 -832
2019-12-07 03:49:00 GMT 10.853840 106.749382 1,650 249 189 -832
2019-12-07 03:48:54 GMT 10.855703 106.754250 1,700 250 200 -960
2019-12-07 03:48:48 GMT 10.857844 106.760078 1,825 250 203 -768
2019-12-07 03:48:43 GMT 10.860077 106.765945 1,875 250 209 -768
2019-12-07 03:48:33 GMT 10.863327 106.774658 1,975 250 211 -192
2019-12-07 03:48:27 GMT 10.865153 106.779495 1,975 249 217 -448
2019-12-07 03:48:21 GMT 10.867387 106.785324 2,000 249 215 -448
2019-12-07 03:48:12 GMT 10.870972 106.794540 2,075 249 227 -448
2019-12-07 03:48:00 GMT 10.875778 106.807236 2,075 250 254 -256
2019-12-07 03:47:50 GMT 10.879944 106.818550 2,150 252 267 -448
2019-12-07 03:47:38 GMT 10.884613 106.832855 2,250 254 266 -576
2019-12-07 03:47:27 GMT 10.887863 106.845024 2,300 258 267 -704
2019-12-07 03:47:21 GMT 10.889282 106.852699 2,375 269 268 -512
2019-12-07 03:47:16 GMT 10.890012 106.859192 2,400 266 267 -640
2019-12-07 03:47:06 GMT 10.890477 106.872299 2,500 269 267 -512
2019-12-07 03:46:55 GMT 10.890989 106.886612 2,600 268 268 -448
2019-12-07 03:46:45 GMT 10.891920 106.899673 2,675 264 267 -512
2019-12-07 03:46:34 GMT 10.893550 106.912682 2,775 263 269 -576
2019-12-07 03:46:20 GMT 10.895874 106.929504 2,875 263 268 -512
2019-12-07 03:45:56 GMT 10.899974 106.959709 3,075 263 266 -512
2019-12-07 03:45:48 GMT 10.901321 106.969666 3,125 263 267 -512
2019-12-07 03:45:40 GMT 10.902720 106.979851 3,200 263 267 -576
2019-12-07 03:45:35 GMT 10.903512 106.985588 3,250 263 267 -448
2019-12-07 03:45:31 GMT 10.904350 106.991798 3,275 263 267 -512
2019-12-07 03:45:26 GMT 10.904800 106.995277 3,325 263 266 -512
2019-12-07 03:45:20 GMT 10.906219 107.005745 3,375 263 266 -448
2019-12-07 03:45:16 GMT 10.906770 107.009727 3,400 263 266 -448
2019-12-07 03:45:10 GMT 10.907913 107.018150 3,450 263 266 -448
2019-12-07 03:45:06 GMT 10.908539 107.022644 3,475 263 267 -512
2019-12-07 03:44:56 GMT 10.910248 107.035110 3,550 263 269 -512
2019-12-07 03:44:45 GMT 10.912170 107.048950 3,650 262 271 -576
2019-12-07 03:44:34 GMT 10.914093 107.062859 3,725 262 272 -448
2019-12-07 03:44:22 GMT 10.916153 107.078156 3,825 263 274 -640
2019-12-07 03:44:11 GMT 10.917664 107.090324 3,950 264 279 -1280
2019-12-07 03:44:00 GMT 10.919449 107.105476 4,175 263 280 -1408
2019-12-07 03:43:49 GMT 10.921875 107.119537 4,450 257 281 -1472
2019-12-07 03:43:43 GMT 10.924227 107.129326 4,625 257 282 -1600
2019-12-07 03:43:40 GMT 10.925019 107.132698 4,675 257 281 -1600
2019-12-07 03:43:29 GMT 10.928650 107.147339 4,950 256 282 -1280
2019-12-07 03:43:21 GMT 10.931117 107.157127 5,100 256 284 -1088
2019-12-07 03:43:18 GMT 10.931946 107.160500 5,150 256 285 -1024
2019-12-07 03:43:11 GMT 10.934326 107.169930 5,250 256 288 -896
2019-12-07 03:43:07 GMT 10.935912 107.176254 5,325 256 291 -896
2019-12-07 03:42:59 GMT 10.937668 107.183418 5,400 257 293 -896
2019-12-07 03:42:56 GMT 10.939264 107.189896 5,475 257 298 -640
2019-12-07 03:42:48 GMT 10.941467 107.199142 5,525 257 301 -704
2019-12-07 03:42:44 GMT 10.943128 107.206375 5,575 257 304 -1024
2019-12-07 03:42:38 GMT 10.944901 107.214249 5,675 258 316 -704
2019-12-07 03:42:33 GMT 10.946247 107.220055 5,700 257 327 -512
2019-12-07 03:42:28 GMT 10.948563 107.230255 5,725 257 341 -512
2019-12-07 03:42:23 GMT 10.950073 107.236794 5,750 257 354 -448
2019-12-07 03:42:16 GMT 10.952485 107.247185 5,775 257 371 -448
2019-12-07 03:42:11 GMT 10.954147 107.254311 5,800 257 379 -512
2019-12-07 03:42:06 GMT 10.956573 107.264442 5,825 257 398 -1280
2019-12-07 03:42:00 GMT 10.959840 107.277931 5,975 257 402 -2432
2019-12-07 03:41:56 GMT 10.961888 107.286407 6,150 257 402 -2688
2019-12-07 03:41:50 GMT 10.963843 107.294502 6,375 257 400 -2560
2019-12-07 03:41:45 GMT 10.966590 107.305878 6,625 257 400 -2944
2019-12-07 03:41:40 GMT 10.968638 107.314262 6,825 257 399 -3264
2019-12-07 03:41:33 GMT 10.971525 107.326309 7,150 257 398 -3776
2019-12-07 03:41:28 GMT 10.973619 107.335075 7,475 257 397 -3648
2019-12-07 03:41:22 GMT 10.975621 107.343414 7,750 257 397 -3264
2019-12-07 03:41:18 GMT 10.978135 107.353966 8,025 257 398 -3136
2019-12-07 03:41:13 GMT 10.980377 107.363419 8,275 257 399 -2496
2019-12-07 03:41:07 GMT 10.983170 107.375114 8,525 257 402 -1856
2019-12-07 03:41:02 GMT 10.984909 107.382500 8,675 257 403 -1536
2019-12-07 03:40:56 GMT 10.987538 107.393524 8,800 257 404 -1088
2019-12-07 03:40:50 GMT 10.990099 107.404274 8,900 257 406 -384
2019-12-07 03:40:44 GMT 10.992599 107.414658 8,950 257 406 -64
2019-12-07 03:40:36 GMT 10.996849 107.432510 8,950 257 406 0
2019-12-07 03:40:32 GMT 10.997640 107.435883 8,950 257 406 0
2019-12-07 03:40:28 GMT 10.999502 107.443687 8,950 257 406 0
2019-12-07 03:40:23 GMT 11.002249 107.455200 8,950 257 406 0
2019-12-07 03:40:17 GMT 11.005280 107.467834 8,950 257 406 0
2019-12-07 03:40:13 GMT 11.006699 107.473801 8,950 257 406 0
2019-12-07 03:40:07 GMT 11.009079 107.483795 8,950 257 405 0
2019-12-07 03:40:01 GMT 11.012009 107.496056 8,950 257 405 0
2019-12-07 03:39:58 GMT 11.013840 107.503822 8,950 257 405 -64
2019-12-07 03:39:51 GMT 11.016403 107.514572 8,950 257 405 -64
2019-12-07 03:39:44 GMT 11.019470 107.527596 8,950 257 406 -64
2019-12-07 03:39:40 GMT 11.021347 107.535362 8,950 257 405 0
2019-12-07 03:39:28 GMT 11.026657 107.557617 8,950 257 405 0
2019-12-07 03:39:18 GMT 11.030823 107.575050 8,950 257 405 0
2019-12-07 03:39:06 GMT 11.036041 107.596924 8,950 257 405 0
2019-12-07 03:38:57 GMT 11.040161 107.614349 8,950 257 406 -64
2019-12-07 03:38:54 GMT 11.041306 107.619179 8,950 257 406 0
2019-12-07 03:38:48 GMT 11.044099 107.631081 8,950 257 406 -64
2019-12-07 03:38:44 GMT 11.045792 107.638123 8,950 257 405 64
2019-12-07 03:38:32 GMT 11.051102 107.660332 8,950 257 403 64
2019-12-07 03:38:24 GMT 11.055176 107.677284 8,950 257 403 0
2019-12-07 03:38:13 GMT 11.059741 107.696518 8,925 257 403 192
2019-12-07 03:38:07 GMT 11.062180 107.706833 8,925 257 405 -960
2019-12-07 03:38:01 GMT 11.064955 107.718590 8,925 257 405 -960
2019-12-07 03:37:51 GMT 11.069098 107.736412 8,925 257 406 -896
2019-12-07 03:37:40 GMT 11.078921 107.778816 9,500 257 399 -1856
2019-12-07 03:37:28 GMT 11.078921 107.778816 9,425 257 407 -2368
2019-12-07 03:37:17 GMT 11.083282 107.797279 11,475 257 416 -3648
2019-12-07 03:37:06 GMT 11.088593 107.819778 10,475 257 413 -4544
2019-12-07 03:36:53 GMT 11.095028 107.846519 11,300 257 410 -3840
2019-12-07 03:36:38 GMT 11.101639 107.873955 12,325 257 410 -3456
2019-12-07 03:36:33 GMT 11.103966 107.883720 12,600 257 411 -3520
2019-12-07 03:36:24 GMT 11.107956 107.900658 13,075 257 412 -3648
2019-12-07 03:36:13 GMT 11.112578 107.920288 13,700 257 419 -2176
2019-12-07 03:36:02 GMT 11.117889 107.943138 14,025 257 433 -2432
2019-12-07 03:35:50 GMT 11.123238 107.965828 14,575 257 438 -3008
2019-12-07 03:35:37 GMT 11.128871 107.990013 15,050 257 444 -2496
2019-12-07 03:35:27 GMT 11.133774 108.010948 15,425 257 454 -3392
2019-12-07 03:35:18 GMT 11.138672 108.032066 15,950 257 454 -3392
2019-12-07 03:35:06 GMT 11.144792 108.057961 16,600 257 456 -3776
2019-12-07 03:34:54 GMT 11.150285 108.080940 17,250 257 459 -3136
2019-12-07 03:34:47 GMT 11.154190 108.097374 17,800 257 463 -3520
2019-12-07 03:34:34 GMT 11.160527 108.124069 18,325 257 464 -3456
2019-12-07 03:34:23 GMT 11.166092 108.147568 18,825 257 473 -2368
2019-12-07 03:34:13 GMT 11.170898 108.167931 19,200 257 479 -2944
2019-12-07 03:34:02 GMT 11.176666 108.192505 19,650 257 484 -2944
2019-12-07 03:33:53 GMT 11.181568 108.213356 20,075 257 488 -3008
2019-12-07 03:33:40 GMT 11.187853 108.240295 20,625 257 492 -3008
2019-12-07 03:33:31 GMT 11.193237 108.263351 21,075 257 495 -2688
2019-12-07 03:33:20 GMT 11.198685 108.286507 21,675 257 498 -2112
2019-12-07 03:33:10 GMT 11.204798 108.312569 21,950 257 501 -1024
2019-12-07 03:32:58 GMT 11.210175 108.335564 22,000 257 503 -128
2019-12-07 03:32:47 GMT 11.216669 108.363213 22,000 257 503 0
2019-12-07 03:32:41 GMT 11.220253 108.378441 22,000 257 503 0
2019-12-07 03:32:36 GMT 11.222208 108.386726 22,000 257 503 0
2019-12-07 03:32:32 GMT 11.224823 108.397789 22,000 257 503 0
2019-12-07 03:31:37 GMT 11.254003 108.522369 22,000 257 504 0
2019-12-07 03:30:46 GMT 11.282181 108.643234 22,000 257 503 0
2019-12-07 03:28:02 GMT 11.370392 109.022781 22,775 257 510 -512
2019-12-07 03:26:49 GMT 11.409441 109.191139 23,375 257 510 -512
2019-12-07 03:26:45 GMT 11.411179 109.198654 23,375 257 510 -512
We lost coverage of the aircraft here for a total of 121 minutes
2019-12-07 01:25:50 GMT 2.080140 106.135269 34,075 37 437 768
2019-12-07 01:25:16 GMT 2.024597 106.092461 33,700 38 436 704
We lost coverage of the aircraft here for a total of 6 minutes
2019-12-07 01:19:27 GMT 1.534641 105.613701 29,575 38 407 704
2019-12-07 01:19:19 GMT 1.522202 105.603889 29,475 38 405 768
2019-12-07 01:19:09 GMT 1.508293 105.592964 29,375 38 404 768
2019-12-07 01:18:38 GMT 1.463837 105.556641 29,100 41 400 512
2019-12-07 01:18:33 GMT 1.458618 105.551430 29,000 69 394 1344
2019-12-07 01:18:23 GMT 1.446099 105.534332 28,850 69 394 1344
2019-12-07 01:18:12 GMT 1.438522 105.517769 28,675 69 394 1344
2019-12-07 01:18:07 GMT 1.434265 105.506500 28,550 69 395 1408
2019-12-07 01:17:56 GMT 1.427617 105.489113 28,350 69 395 1024
2019-12-07 01:17:45 GMT 1.420532 105.470329 28,175 69 393 832
2019-12-07 01:17:35 GMT 1.414583 105.453552 28,050 72 392 704
2019-12-07 01:17:25 GMT 1.409276 105.435127 27,950 76 390 640
2019-12-07 01:17:09 GMT 1.403870 105.407722 27,775 79 386 896
2019-12-07 01:17:04 GMT 1.401901 105.396873 27,675 79 385 960
2019-12-07 01:16:52 GMT 1.398522 105.378349 27,550 79 382 448
2019-12-07 01:16:42 GMT 1.394891 105.358269 27,450 79 378 640
2019-12-07 01:16:31 GMT 1.392059 105.342499 27,300 80 377 1536
2019-12-07 01:16:17 GMT 1.387939 105.318016 26,975 80 379 1600
2019-12-07 01:16:11 GMT 1.386233 105.307266 26,800 81 380 1280
2019-12-07 01:15:52 GMT 1.381251 105.275398 26,600 81 379 1088
2019-12-07 01:15:49 GMT 1.380088 105.267776 26,400 81 378 1024
2019-12-07 01:15:39 GMT 1.377713 105.251915 26,250 81 377 1152
2019-12-07 01:15:26 GMT 1.374252 105.228867 26,025 81 375 1088
2019-12-07 01:15:16 GMT 1.371941 105.213463 25,875 81 373 1024
2019-12-07 01:15:04 GMT 1.368775 105.191673 25,675 81 370 960
2019-12-07 01:14:57 GMT 1.366960 105.179131 25,575 81 367 832
2019-12-07 01:14:45 GMT 1.364260 105.160278 25,425 81 366 896
2019-12-07 01:14:36 GMT 1.362030 105.144882 25,250 81 365 1856
2019-12-07 01:14:22 GMT 1.358643 105.121841 24,900 81 367 1856
2019-12-07 01:14:14 GMT 1.356537 105.106667 24,625 83 370 1792
2019-12-07 01:14:03 GMT 1.354903 105.090004 24,375 85 370 1344
2019-12-07 01:13:50 GMT 1.353561 105.067795 24,125 86 369 768
2019-12-07 01:13:41 GMT 1.352668 105.051842 24,025 86 366 768
2019-12-07 01:13:32 GMT 1.351822 105.036980 23,900 86 362 1088
2019-12-07 01:13:22 GMT 1.350760 105.018593 23,700 86 361 1280
2019-12-07 01:13:11 GMT 1.349642 105.000648 23,500 86 359 1408
2019-12-07 01:13:01 GMT 1.348572 104.984406 23,300 85 357 1024
2019-12-07 01:12:47 GMT 1.346970 104.962730 23,075 85 355 1216
2019-12-07 01:12:40 GMT 1.346008 104.949318 22,900 85 354 1536
2019-12-07 01:12:29 GMT 1.344772 104.932373 22,200 85 353 1600
2019-12-07 01:12:19 GMT 1.343445 104.914078 22,400 85 353 1600
2019-12-07 01:12:08 GMT 1.342392 104.898766 22,150 86 353 1536
2019-12-07 01:11:58 GMT 1.341263 104.880836 21,900 87 353 1472
2019-12-07 01:11:46 GMT 1.340751 104.864883 21,650 88 352 1536
2019-12-07 01:11:35 GMT 1.340195 104.843460 21,325 88 352 1984
2019-12-07 01:11:25 GMT 1.339874 104.830101 21,025 88 354 2176
2019-12-07 01:11:16 GMT 1.339448 104.812126 20,675 88 356 2432
2019-12-07 01:11:05 GMT 1.339005 104.793976 20,250 88 359 3008
2019-12-07 01:10:54 GMT 1.338563 104.777321 19,725 88 367 3648
2019-12-07 01:10:48 GMT 1.338377 104.768845 19,450 88 373 3840
2019-12-07 01:10:44 GMT 1.338098 104.757812 19,100 88 376 4032
2019-12-07 01:10:37 GMT 1.337818 104.747391 18,675 88 380 4160
2019-12-07 01:10:33 GMT 1.337585 104.738159 18,350 88 389 3968
2019-12-07 01:10:26 GMT 1.337353 104.727409 18,000 88 391 3840
2019-12-07 01:10:23 GMT 1.337219 104.721634 17,825 88 396 3200
2019-12-07 01:10:17 GMT 1.336945 104.710274 17,525 88 398 2496
2019-12-07 01:10:12 GMT 1.336761 104.703667 17,350 88 399 2176
2019-12-07 01:10:02 GMT 1.336304 104.683739 17,025 88 398 1920
2019-12-07 01:09:54 GMT 1.335956 104.670158 16,800 88 397 1920
2019-12-07 01:09:50 GMT 1.335800 104.663910 16,475 88 385 1984
2019-12-07 01:09:41 GMT 1.335304 104.645248 16,425 88 395 1536
2019-12-07 01:09:34 GMT 1.335022 104.634300 16,275 88 393 1600
2019-12-07 01:09:28 GMT 1.334746 104.623421 16,125 88 392 1728
2019-12-07 01:09:25 GMT 1.334560 104.616882 16,000 88 391 2432
2019-12-07 01:09:20 GMT 1.334335 104.607491 15,850 88 391 2560
2019-12-07 01:09:08 GMT 1.333815 104.587570 15,425 88 393 2112
2019-12-07 01:09:03 GMT 1.333557 104.576714 15,200 88 392 1984
2019-12-07 01:08:59 GMT 1.333396 104.569817 15,100 88 391 1920
2019-12-07 01:08:53 GMT 1.333054 104.556465 14,900 88 389 1536
2019-12-07 01:08:46 GMT 1.332870 104.547478 14,775 88 387 1792
2019-12-07 01:08:42 GMT 1.332604 104.536758 14,550 88 386 1920
2019-12-07 01:08:38 GMT 1.332465 104.531738 14,500 88 385 1920
2019-12-07 01:08:27 GMT 1.332001 104.511497 14,175 88 382 1728
2019-12-07 01:08:18 GMT 1.331635 104.496643 13,950 88 380 1664
2019-12-07 01:08:11 GMT 1.331254 104.482635 13,750 88 377 1600
2019-12-07 01:08:05 GMT 1.330975 104.472549 13,600 88 375 1600
2019-12-07 01:07:59 GMT 1.330696 104.463882 13,475 88 372 2240
2019-12-07 01:07:54 GMT 1.330463 104.455261 13,325 88 372 2304
2019-12-07 01:07:49 GMT 1.330137 104.444275 13,050 88 372 2304
2019-12-07 01:07:45 GMT 1.329941 104.438782 12,950 88 371 2240
2019-12-07 01:07:37 GMT 1.329532 104.422684 12,650 89 370 2048
2019-12-07 01:07:34 GMT 1.329483 104.420998 12,650 89 370 2048
2019-12-07 01:07:24 GMT 1.330044 104.403267 12,250 95 367 1984
2019-12-07 01:07:13 GMT 1.332325 104.385132 11,925 98 365 1984
2019-12-07 01:07:03 GMT 1.334839 104.368507 11,600 98 361 1728
2019-12-07 01:06:54 GMT 1.337219 104.352753 11,375 98 354 1088
2019-12-07 01:06:42 GMT 1.340240 104.332550 11,200 98 343 832
2019-12-07 01:06:30 GMT 1.342575 104.316673 11,050 98 333 896
2019-12-07 01:06:21 GMT 1.344864 104.300941 10,900 98 322 832
2019-12-07 01:06:09 GMT 1.347107 104.285812 10,750 98 312 832
2019-12-07 01:05:59 GMT 1.349410 104.270340 10,600 98 299 1088
2019-12-07 01:05:49 GMT 1.351365 104.257034 10,375 98 291 2112
2019-12-07 01:05:37 GMT 1.353553 104.242210 10,000 98 288 2112
2019-12-07 01:05:28 GMT 1.355667 104.227852 9,625 98 282 2688
2019-12-07 01:05:21 GMT 1.356857 104.219849 9,275 98 281 3264
2019-12-07 01:05:17 GMT 1.357556 104.215218 9,150 98 281 3584
2019-12-07 01:05:06 GMT 1.359741 104.200432 8,500 98 287 3776
2019-12-07 01:04:54 GMT 1.362025 104.185150 7,825 98 290 3264
2019-12-07 01:04:48 GMT 1.363282 104.176674 7,525 98 289 2816
2019-12-07 01:04:44 GMT 1.363981 104.171890 7,375 98 287 2752
2019-12-07 01:04:37 GMT 1.365796 104.160149 5,250 99 274 2624
2019-12-07 01:04:34 GMT 1.365796 104.160149 6,975 98 284 2816
2019-12-07 01:04:27 GMT 1.367340 104.150017 6,625 98 282 2944
2019-12-07 01:04:24 GMT 1.367935 104.146156 6,500 98 281 3072
2019-12-07 01:04:14 GMT 1.370032 104.132820 5,950 99 279 3008
2019-12-07 01:04:07 GMT 1.371569 104.123352 5,625 99 277 3072
2019-12-07 01:04:03 GMT 1.372238 104.119293 5,475 99 277 3008
2019-12-07 01:03:53 GMT 1.374641 104.104980 4,975 99 272 2432
2019-12-07 01:03:45 GMT 1.378738 104.081581 4,650 100 255 1600
2019-12-07 01:03:33 GMT 1.378738 104.081581 4,375 100 251 1920
2019-12-07 01:03:23 GMT 1.380414 104.072258 3,950 99 236 1152
2019-12-07 01:03:20 GMT 1.381112 104.068466 3,925 98 212 1088
2019-12-07 01:03:11 GMT 1.383133 104.057144 3,125 99 239 1728
2019-12-07 01:02:55 GMT 1.385814 104.040718 3,350 99 224 256
2019-12-07 01:02:52 GMT 1.386246 104.038017 3,225 98 212 1088
2019-12-07 01:02:49 GMT 1.386658 104.034943 3,175 97 202 1024
2019-12-07 01:02:38 GMT 1.387848 104.024796 3,000 82 174 896
2019-12-07 01:02:29 GMT 1.387489 104.017654 2,900 73 165 1152
2019-12-07 01:02:25 GMT 1.386605 104.014717 2,825 32 150 2112
2019-12-07 01:02:20 GMT 1.384460 104.010735 2,675 52 154 1856
2019-12-07 01:02:15 GMT 1.382355 104.008362 2,400 32 150 2112
2019-12-07 01:02:08 GMT 1.378784 104.005676 2,300 26 149 2368
2019-12-07 01:01:58 GMT 1.371918 104.002724 1,875 21 155 3008
2019-12-07 01:01:45 GMT 1.363422 103.999420 1,175 21 160 3264
2019-12-07 01:01:38 GMT 1.358534 103.997482 850 22 162 2752
2019-12-07 01:01:35 GMT 1.355601 103.996300 675 22 162 2816

Making use of Plane Finder data

You are free to use the raw flight data, aircraft information and images provided in this report for your own purposes provided the data is correctly attributed to Plane Finder. We ask that you please credit Plane Finder and link to planefinder.net in close proximity to the content.

Optionally one of the following logos (no smaller then 150x24px) can be used and must link to planefinder.net

Embedding the Plane Finder map

You are welcome to embed the Plane Finder playback map on your website to offer visitors a more interactive experience. We suggest using the following HTML code:

<iframe src="//planefinder.net/data/report/TR874-9V-TAZ-7700-squawk-2019-12-07/map" width="800" height="600" seamless="seamless"></iframe>

Where our data comes from

Plane Finder has a global network of data feeds and antenna radars that receive data broadcast directly from aircraft. The primary technologies used are ADS-B and MLAT. We also show feeds from the FAA and a FLARM glider feed.

Click here to find out more about the Plane Finder network.

How we collect our data